createdAt,value
2023-10-30T00:02:46.054Z,14.13
2023-10-30T00:12:54.059Z,16.15
2023-10-30T00:22:56.022Z,17.30
2023-10-30T00:33:00.896Z,19.45
2023-10-30T00:43:02.925Z,17.42
2023-10-30T00:53:04.868Z,16.27
2023-10-30T01:03:16.106Z,13.10
2023-10-30T01:13:20.752Z,17.08
2023-10-30T01:23:27.323Z,17.58
2023-10-30T01:33:43.951Z,15.05
2023-10-30T01:43:46.025Z,13.32
2023-10-30T01:53:49.677Z,16.05
2023-10-30T02:03:55.152Z,14.15
2023-10-30T02:13:57.770Z,16.38
2023-10-30T02:24:06.990Z,17.58
2023-10-30T02:34:15.745Z,15.23
2023-10-30T02:44:18.090Z,14.77
2023-10-30T02:54:21.565Z,13.48
2023-10-30T03:04:23.758Z,13.85
2023-10-30T03:14:41.086Z,14.43
2023-10-30T03:24:46.595Z,16.52
2023-10-30T03:34:50.009Z,16.08
2023-10-30T03:44:52.850Z,9.63
2023-10-30T03:54:54.853Z,9.82
2023-10-30T04:05:02.087Z,13.43
2023-10-30T04:15:07.976Z,23.83
2023-10-30T04:25:12.063Z,19.65
2023-10-30T04:35:14.402Z,20.08
2023-10-30T04:45:16.339Z,26.48
2023-10-30T04:55:18.311Z,25.10
2023-10-30T05:05:20.345Z,24.40
2023-10-30T05:15:28.348Z,26.58
2023-10-30T05:25:41.788Z,29.85
2023-10-30T05:35:44.860Z,27.55
2023-10-30T05:45:47.712Z,25.73
2023-10-30T05:55:49.580Z,22.63
2023-10-30T06:05:51.582Z,12.20
2023-10-30T06:15:55.417Z,14.85
2023-10-30T06:25:57.458Z,15.25
2023-10-30T06:36:00.862Z,15.90
2023-10-30T06:46:06.838Z,10.93
2023-10-30T06:56:34.790Z,10.05
2023-10-30T07:06:55.320Z,22.95
2023-10-30T07:17:03.790Z,21.95
2023-10-30T07:27:07.361Z,9.23
2023-10-30T07:37:09.293Z,10.88
2023-10-30T07:47:13.352Z,9.60
2023-10-30T07:57:19.091Z,8.48
2023-10-30T08:07:21.626Z,6.78
2023-10-30T08:17:23.645Z,10.27
2023-10-30T08:27:26.065Z,11.65
2023-10-30T08:37:28.361Z,10.00
2023-10-30T08:47:33.383Z,10.32
2023-10-30T08:57:35.295Z,10.07
2023-10-30T09:07:37.441Z,11.20
2023-10-30T09:17:39.499Z,10.07
2023-10-30T09:27:41.646Z,9.98
2023-10-30T09:37:43.493Z,11.25
2023-10-30T09:47:46.626Z,17.02
2023-10-30T09:57:49.748Z,12.98
2023-10-30T10:08:07.004Z,8.07
2023-10-30T10:18:23.966Z,12.65
2023-10-30T10:28:35.280Z,11.85
2023-10-30T10:38:37.217Z,8.18
2023-10-30T10:48:39.169Z,14.10
2023-10-30T10:59:00.938Z,9.77
2023-10-30T11:09:15.547Z,8.95
2023-10-30T11:19:21.365Z,5.13
2023-10-30T11:29:23.938Z,5.45
2023-10-30T11:39:25.880Z,7.10
2023-10-30T11:49:40.384Z,5.78
2023-10-30T11:59:44.532Z,5.07
2023-10-30T12:09:46.704Z,5.18
2023-10-30T12:19:49.557Z,5.20
2023-10-30T12:30:00.803Z,6.53
2023-10-30T12:40:13.694Z,5.93
2023-10-30T12:50:16.702Z,5.45
2023-10-30T13:00:20.063Z,4.80
2023-10-30T13:10:22.104Z,5.13
2023-10-30T13:20:28.244Z,5.47
2023-10-30T13:30:31.009Z,7.72
2023-10-30T13:40:32.930Z,4.40
2023-10-30T13:50:34.765Z,5.28
2023-10-30T14:00:36.805Z,6.07
2023-10-30T14:10:41.368Z,8.05
2023-10-30T14:20:43.238Z,9.48
2023-10-30T14:30:45.299Z,6.82
2023-10-30T14:40:47.310Z,10.32
2023-10-30T14:50:49.280Z,8.27
2023-10-30T15:00:51.213Z,11.55
2023-10-30T15:10:58.083Z,17.02
2023-10-30T15:21:00.051Z,29.67
2023-10-30T15:31:05.288Z,25.58
2023-10-30T15:41:07.242Z,30.20
2023-10-30T15:51:09.223Z,27.65
2023-10-30T16:01:11.281Z,27.50
2023-10-30T16:21:28.514Z,49.15
2023-10-30T16:31:36.661Z,43.30
2023-10-30T16:41:48.340Z,75.13
2023-10-30T16:51:52.941Z,38.22
2023-10-30T17:01:57.728Z,33.88
2023-10-30T17:12:06.135Z,35.08
2023-10-30T17:22:08.471Z,37.25
2023-10-30T17:32:10.396Z,39.10
2023-10-30T17:42:14.546Z,34.83
2023-10-30T17:52:18.057Z,32.35
2023-10-30T18:02:20.030Z,40.78
2023-10-30T18:12:22.088Z,36.42
2023-10-30T18:22:29.809Z,38.25
2023-10-30T18:32:31.654Z,32.38
2023-10-30T18:42:33.607Z,24.25
2023-10-30T18:52:35.550Z,20.67
2023-10-30T19:02:37.554Z,18.90
2023-10-30T19:12:40.084Z,19.98
2023-10-30T19:22:44.009Z,21.67
2023-10-30T19:32:47.484Z,22.67
2023-10-30T19:42:55.066Z,18.52
2023-10-30T20:03:31.630Z,22.10
2023-10-30T20:13:36.661Z,19.00
2023-10-30T20:23:38.552Z,19.40
2023-10-30T20:33:40.512Z,25.23
2023-10-30T20:43:42.444Z,24.45
2023-10-30T20:53:44.353Z,29.70
2023-10-30T21:03:46.481Z,31.50
2023-10-30T21:13:48.725Z,30.85
2023-10-30T21:23:50.700Z,36.38
2023-10-30T21:33:52.591Z,31.92
2023-10-30T21:44:13.149Z,30.25
2023-10-30T21:54:14.950Z,28.05
2023-10-30T22:04:18.419Z,28.50
2023-10-30T22:14:22.369Z,21.60
2023-10-30T22:24:30.894Z,22.17
2023-10-30T22:34:32.775Z,10.70
2023-10-30T22:44:34.752Z,8.50
2023-10-30T22:54:36.666Z,11.00
2023-10-30T23:04:40.479Z,10.25
2023-10-30T23:14:45.638Z,10.35
2023-10-30T23:24:47.453Z,6.18
2023-10-30T23:34:49.413Z,5.53
2023-10-30T23:44:51.302Z,4.43
2023-10-30T23:54:53.165Z,4.30
